createdAt,value
2022-12-15T00:00:36.115Z,-2.50
2022-12-15T00:03:28.863Z,-2.50
2022-12-15T00:06:16.016Z,-2.60
2022-12-15T00:09:02.586Z,-2.50
2022-12-15T00:11:48.956Z,-2.50
2022-12-15T00:14:35.470Z,-2.60
2022-12-15T00:17:21.996Z,-2.60
2022-12-15T00:20:08.443Z,-2.60
2022-12-15T00:22:54.912Z,-2.70
2022-12-15T00:25:41.620Z,-2.80
2022-12-15T00:28:27.935Z,-2.80
2022-12-15T00:31:14.755Z,-2.80
2022-12-15T00:34:01.618Z,-2.80
2022-12-15T00:36:49.712Z,-2.80
2022-12-15T00:39:18.183Z,-2.80
2022-12-15T00:41:46.114Z,-2.70
2022-12-15T00:44:18.956Z,-2.70
2022-12-15T00:46:57.383Z,-2.70
2022-12-15T00:49:49.056Z,-2.80
2022-12-15T00:52:37.008Z,-2.80
2022-12-15T00:55:24.735Z,-2.80
2022-12-15T00:58:13.678Z,-2.70
2022-12-15T01:01:03.118Z,-2.80
2022-12-15T01:03:49.673Z,-2.70
2022-12-15T01:06:38.601Z,-2.80
2022-12-15T01:09:27.099Z,-2.70
2022-12-15T01:12:14.116Z,-2.90
2022-12-15T01:15:00.974Z,-2.80
2022-12-15T01:20:28.071Z,-2.90
2022-12-15T01:22:56.718Z,-3.00
2022-12-15T01:25:26.427Z,-3.10
2022-12-15T01:27:54.756Z,-3.10
2022-12-15T01:30:25.280Z,-3.00
2022-12-15T01:32:54.114Z,-3.00
2022-12-15T01:35:22.418Z,-2.90
2022-12-15T01:37:50.500Z,-2.90
2022-12-15T01:40:40.097Z,-2.90
2022-12-15T01:43:17.777Z,-2.90
2022-12-15T01:45:57.223Z,-2.90
2022-12-15T01:48:41.544Z,-2.90
2022-12-15T01:51:31.934Z,-2.90
2022-12-15T01:54:16.870Z,-2.90
2022-12-15T01:56:57.949Z,-2.80
2022-12-15T01:59:42.185Z,-2.80
2022-12-15T02:02:11.592Z,-2.80
2022-12-15T02:04:39.896Z,-2.90
2022-12-15T02:07:07.810Z,-2.80
2022-12-15T02:09:35.720Z,-2.80
2022-12-15T02:12:10.368Z,-2.90
2022-12-15T02:15:10.538Z,-2.80
2022-12-15T02:18:05.056Z,-2.80
2022-12-15T02:20:51.931Z,-2.80
2022-12-15T02:23:41.281Z,-2.80
2022-12-15T02:26:28.071Z,-2.80
2022-12-15T02:29:18.371Z,-2.80
2022-12-15T02:31:51.615Z,-2.80
2022-12-15T02:34:31.927Z,-2.80
2022-12-15T02:37:22.211Z,-2.80
2022-12-15T02:39:50.226Z,-2.80
2022-12-15T02:42:21.809Z,-2.80
2022-12-15T02:44:58.636Z,-2.80
2022-12-15T02:47:35.508Z,-2.80
2022-12-15T02:50:27.682Z,-2.80
2022-12-15T02:53:07.293Z,-2.80
2022-12-15T02:56:06.602Z,-2.90
2022-12-15T02:58:49.635Z,-2.90
2022-12-15T03:01:33.824Z,-2.90
2022-12-15T03:04:04.019Z,-2.80
2022-12-15T03:06:32.027Z,-2.80
2022-12-15T03:08:59.984Z,-2.90
2022-12-15T03:11:28.290Z,-2.90
2022-12-15T03:13:58.603Z,-2.90
2022-12-15T03:16:26.627Z,-2.80
2022-12-15T03:18:54.807Z,-2.80
2022-12-15T03:21:22.732Z,-2.90
2022-12-15T03:23:50.708Z,-2.90
2022-12-15T03:26:18.654Z,-3.00
2022-12-15T03:28:46.634Z,-3.00
2022-12-15T03:31:14.695Z,-3.00
2022-12-15T03:33:42.636Z,-3.00
2022-12-15T03:36:10.851Z,-2.90
2022-12-15T03:38:38.779Z,-2.90
2022-12-15T03:41:06.808Z,-2.80
2022-12-15T03:43:37.818Z,-2.80
2022-12-15T03:46:05.912Z,-2.80
2022-12-15T03:48:34.608Z,-2.80
2022-12-15T03:51:04.961Z,-2.80
2022-12-15T03:53:33.241Z,-2.80
2022-12-15T03:56:01.395Z,-2.80
2022-12-15T03:58:29.386Z,-2.80
2022-12-15T04:00:57.493Z,-2.80
2022-12-15T04:03:25.532Z,-2.80
2022-12-15T04:05:53.525Z,-2.80
2022-12-15T04:08:27.722Z,-2.80
2022-12-15T04:10:55.712Z,-2.80
2022-12-15T04:13:23.629Z,-2.80
2022-12-15T04:15:51.642Z,-2.80
2022-12-15T04:18:19.678Z,-2.80
2022-12-15T04:20:50.391Z,-2.80
2022-12-15T04:23:18.606Z,-2.80
2022-12-15T04:26:05.345Z,-2.80
2022-12-15T04:28:52.061Z,-2.80
2022-12-15T04:31:43.911Z,-2.80
2022-12-15T04:34:37.336Z,-2.80
2022-12-15T04:37:29.391Z,-2.70
2022-12-15T04:40:16.711Z,-2.70
2022-12-15T04:43:06.532Z,-2.80
2022-12-15T04:45:53.105Z,-2.90
2022-12-15T04:48:42.708Z,-3.00
2022-12-15T04:51:29.171Z,-3.00
2022-12-15T04:54:16.831Z,-2.90
2022-12-15T04:57:03.524Z,-2.90
2022-12-15T04:59:50.510Z,-2.90
2022-12-15T05:02:37.096Z,-2.90
2022-12-15T05:05:23.877Z,-2.90
2022-12-15T05:08:10.656Z,-2.90
2022-12-15T05:10:57.037Z,-3.00
2022-12-15T05:13:43.616Z,-3.00
2022-12-15T05:16:30.223Z,-3.00
2022-12-15T05:19:16.632Z,-3.00
2022-12-15T05:22:02.999Z,-2.90
2022-12-15T05:24:49.734Z,-2.90
2022-12-15T05:27:40.905Z,-2.90
2022-12-15T05:30:30.917Z,-2.90
2022-12-15T05:32:58.970Z,-2.90
2022-12-15T05:35:30.100Z,-2.90
2022-12-15T05:37:57.958Z,-2.90
2022-12-15T05:40:25.875Z,-3.00
2022-12-15T05:42:53.823Z,-3.10
2022-12-15T05:45:22.372Z,-3.10
2022-12-15T05:47:53.995Z,-3.00
2022-12-15T05:50:23.027Z,-3.00
2022-12-15T05:52:51.503Z,-3.00
2022-12-15T05:55:20.520Z,-3.00
2022-12-15T05:57:55.492Z,-3.00
2022-12-15T06:00:23.995Z,-2.90
2022-12-15T06:02:52.262Z,-2.90
2022-12-15T06:05:20.292Z,-2.90
2022-12-15T06:07:48.251Z,-2.90
2022-12-15T06:10:16.595Z,-2.90
2022-12-15T06:12:44.724Z,-2.90
2022-12-15T06:15:12.676Z,-2.90
2022-12-15T06:17:40.618Z,-2.90
2022-12-15T06:20:09.114Z,-2.90
2022-12-15T06:22:37.058Z,-2.90
2022-12-15T06:25:05.291Z,-2.90
2022-12-15T06:27:33.252Z,-2.90
2022-12-15T06:30:01.200Z,-2.90
2022-12-15T06:32:29.214Z,-2.90
2022-12-15T06:34:57.251Z,-2.80
2022-12-15T06:37:25.204Z,-2.80
2022-12-15T06:39:53.161Z,-2.80
2022-12-15T06:42:21.056Z,-2.90
2022-12-15T06:44:49.981Z,-2.80
2022-12-15T06:47:18.430Z,-2.90
2022-12-15T06:49:46.387Z,-2.90
2022-12-15T06:52:17.013Z,-3.00
2022-12-15T06:54:45.083Z,-3.00
2022-12-15T06:57:16.072Z,-3.00
2022-12-15T06:59:44.125Z,-3.00
2022-12-15T07:02:25.136Z,-3.00
2022-12-15T07:04:54.900Z,-2.90
2022-12-15T07:07:22.870Z,-2.90
2022-12-15T07:09:51.244Z,-2.90
2022-12-15T07:12:19.216Z,-2.90
2022-12-15T07:14:53.076Z,-2.90
2022-12-15T07:17:21.429Z,-2.80
2022-12-15T07:19:49.357Z,-2.80
2022-12-15T07:22:17.331Z,-2.80
2022-12-15T07:24:45.279Z,-2.80
2022-12-15T07:27:13.269Z,-2.90
2022-12-15T07:29:41.278Z,-2.80
2022-12-15T07:32:09.236Z,-2.80
2022-12-15T07:34:37.183Z,-2.80
2022-12-15T07:37:05.200Z,-2.70
2022-12-15T07:39:33.160Z,-2.70
2022-12-15T07:42:01.396Z,-2.70
2022-12-15T07:44:30.187Z,-2.70
2022-12-15T07:46:58.111Z,-2.80
2022-12-15T07:49:26.387Z,-2.80
2022-12-15T07:51:54.429Z,-2.80
2022-12-15T07:54:22.311Z,-2.90
2022-12-15T07:56:50.692Z,-3.00
2022-12-15T07:59:18.691Z,-3.10
2022-12-15T08:01:46.976Z,-3.00
2022-12-15T08:04:15.624Z,-3.10
2022-12-15T08:06:44.094Z,-3.10
2022-12-15T08:09:12.117Z,-3.20
2022-12-15T08:11:40.041Z,-3.20
2022-12-15T08:14:14.974Z,-3.30
2022-12-15T08:16:47.647Z,-3.30
2022-12-15T08:19:24.321Z,-3.30
2022-12-15T08:21:52.279Z,-3.30
2022-12-15T08:24:20.588Z,-3.30
2022-12-15T08:26:50.103Z,-3.40
2022-12-15T08:32:07.115Z,-3.70
2022-12-15T08:34:35.305Z,-3.80
2022-12-15T08:37:03.208Z,-3.80
2022-12-15T08:39:31.161Z,-3.80
2022-12-15T08:41:59.018Z,-3.70
2022-12-15T08:44:26.865Z,-3.60
2022-12-15T08:46:54.782Z,-3.70
2022-12-15T08:49:22.797Z,-3.80
2022-12-15T08:51:52.523Z,-4.00
2022-12-15T08:54:21.734Z,-4.00
2022-12-15T08:56:50.087Z,-4.10
2022-12-15T08:59:18.074Z,-4.10
2022-12-15T09:01:46.114Z,-4.00
2022-12-15T09:04:14.140Z,-4.20
2022-12-15T09:06:42.300Z,-4.30
2022-12-15T09:09:13.251Z,-4.40
2022-12-15T09:11:41.261Z,-4.30
2022-12-15T09:14:09.232Z,-4.30
2022-12-15T09:16:37.335Z,-4.30
2022-12-15T09:19:06.834Z,-4.50
2022-12-15T09:21:35.814Z,-4.70
2022-12-15T09:24:05.228Z,-4.90
2022-12-15T09:26:37.842Z,-5.00
2022-12-15T09:29:09.352Z,-5.00
2022-12-15T09:31:39.404Z,-5.10
2022-12-15T09:34:07.443Z,-5.20
2022-12-15T09:36:35.568Z,-5.20
2022-12-15T09:39:04.117Z,-5.20
2022-12-15T09:41:34.846Z,-5.10
2022-12-15T09:44:13.219Z,-5.00
2022-12-15T09:47:06.846Z,-4.80
2022-12-15T09:49:58.128Z,-4.70
2022-12-15T09:52:28.968Z,-4.70
2022-12-15T09:54:58.757Z,-4.50
2022-12-15T09:57:45.206Z,-4.40
2022-12-15T10:00:23.141Z,-4.20
2022-12-15T10:03:08.698Z,-4.10
2022-12-15T10:06:15.374Z,-4.00
2022-12-15T10:08:47.266Z,-3.80
2022-12-15T10:11:50.724Z,-3.80
2022-12-15T10:14:33.803Z,-3.70
2022-12-15T10:17:28.766Z,-3.60
2022-12-15T10:20:16.314Z,-3.40
2022-12-15T10:22:44.263Z,-3.10
2022-12-15T10:25:29.826Z,-2.80
2022-12-15T10:28:11.912Z,-2.60
2022-12-15T10:30:42.360Z,-2.60
2022-12-15T10:33:22.743Z,-2.50
2022-12-15T10:35:53.973Z,-2.40
2022-12-15T10:38:38.922Z,-2.20
2022-12-15T10:41:08.752Z,-2.10
2022-12-15T10:43:39.527Z,-2.00
2022-12-15T10:46:10.271Z,-1.90
2022-12-15T10:48:38.808Z,-1.90
2022-12-15T10:51:19.226Z,-1.80
2022-12-15T10:53:52.703Z,-1.70
2022-12-15T10:59:34.511Z,-1.70
2022-12-15T11:02:34.130Z,-1.80
2022-12-15T11:05:16.879Z,-1.70
2022-12-15T11:07:56.578Z,-1.60
2022-12-15T11:10:24.467Z,-1.50
2022-12-15T11:13:27.345Z,-1.50
2022-12-15T11:16:20.787Z,-1.50
2022-12-15T11:18:59.837Z,-1.50
2022-12-15T11:21:32.558Z,-1.40
2022-12-15T11:24:06.222Z,-1.40
2022-12-15T11:26:59.740Z,-1.30
2022-12-15T11:29:30.477Z,-1.20
2022-12-15T11:32:04.761Z,-1.10
2022-12-15T11:34:42.919Z,-1.00
2022-12-15T11:37:41.382Z,-0.90
2022-12-15T11:40:47.401Z,-0.80
2022-12-15T11:43:21.293Z,-0.70
2022-12-15T11:46:05.956Z,-0.70
2022-12-15T11:48:52.256Z,-0.60
2022-12-15T11:51:43.826Z,-0.60
2022-12-15T11:54:36.682Z,-0.60
2022-12-15T11:57:21.129Z,-0.60
2022-12-15T12:00:07.056Z,-0.70
2022-12-15T12:02:56.864Z,-0.70
2022-12-15T12:05:39.691Z,-0.50
2022-12-15T12:08:13.651Z,-0.40
2022-12-15T12:11:05.358Z,-0.50
2022-12-15T12:13:50.301Z,-0.60
2022-12-15T12:16:29.928Z,-0.60
2022-12-15T12:19:10.545Z,-0.60
2022-12-15T12:21:45.454Z,-0.50
2022-12-15T12:24:53.499Z,-0.40
2022-12-15T12:27:37.904Z,-0.40
2022-12-15T12:30:07.673Z,-0.40
2022-12-15T12:33:04.958Z,-0.40
2022-12-15T12:35:42.245Z,-0.40
2022-12-15T12:38:13.116Z,-0.40
2022-12-15T12:41:05.921Z,-0.50
2022-12-15T12:43:37.640Z,-0.60
2022-12-15T12:46:15.073Z,-0.60
2022-12-15T12:48:57.217Z,-0.50
2022-12-15T12:51:32.150Z,-0.50
2022-12-15T12:54:01.138Z,-0.50
2022-12-15T12:56:37.674Z,-0.40
2022-12-15T12:59:30.402Z,-0.30
2022-12-15T13:02:13.169Z,-0.20
2022-12-15T13:04:45.527Z,-0.20
2022-12-15T13:07:37.578Z,-0.20
2022-12-15T13:10:05.417Z,-0.20
2022-12-15T13:12:55.360Z,-0.20
2022-12-15T13:15:32.116Z,-0.30
2022-12-15T13:18:07.695Z,-0.30
2022-12-15T13:20:41.136Z,-0.30
2022-12-15T13:23:37.452Z,-0.30
2022-12-15T13:26:14.423Z,-0.40
2022-12-15T13:28:46.022Z,-0.40
2022-12-15T13:31:14.499Z,-0.40
2022-12-15T13:33:53.361Z,-0.50
2022-12-15T13:36:50.617Z,-0.50
2022-12-15T13:39:20.516Z,-0.60
2022-12-15T13:42:23.618Z,-0.60
2022-12-15T13:44:45.841Z,-0.60
2022-12-15T13:47:23.939Z,-0.70
2022-12-15T13:50:07.968Z,-0.60
2022-12-15T13:55:51.106Z,-0.60
2022-12-15T13:58:20.470Z,-0.60
2022-12-15T14:00:56.861Z,-0.50
2022-12-15T14:03:28.480Z,-0.50
2022-12-15T14:06:04.787Z,-0.50
2022-12-15T14:08:33.814Z,-0.50
2022-12-15T14:11:22.265Z,-0.40
2022-12-15T14:13:54.313Z,-0.50
2022-12-15T14:16:23.971Z,-0.50
2022-12-15T14:19:17.272Z,-0.50
2022-12-15T14:21:59.052Z,-0.60
2022-12-15T14:24:40.856Z,-0.60
2022-12-15T14:27:09.249Z,-0.60
2022-12-15T14:29:37.225Z,-0.70
2022-12-15T14:32:05.884Z,-0.80
2022-12-15T14:34:39.944Z,-0.80
2022-12-15T14:37:20.029Z,-0.90
2022-12-15T14:39:50.591Z,-1.00
2022-12-15T14:42:29.088Z,-1.00
2022-12-15T14:44:58.365Z,-1.00
2022-12-15T14:47:29.517Z,-1.10
2022-12-15T14:50:05.628Z,-1.10
2022-12-15T14:52:39.945Z,-1.20
2022-12-15T14:55:36.923Z,-1.40
2022-12-15T14:58:35.692Z,-1.60
2022-12-15T15:01:27.813Z,-1.70
2022-12-15T15:03:11.324Z,-1.70
2022-12-15T15:04:03.649Z,-1.70
2022-12-15T15:06:39.995Z,-1.70
2022-12-15T15:09:29.794Z,-1.70
2022-12-15T15:12:06.486Z,-1.70
2022-12-15T15:14:43.346Z,-1.80
2022-12-15T15:17:14.391Z,-1.80
2022-12-15T15:19:50.542Z,-1.90
2022-12-15T15:22:40.911Z,-2.00
2022-12-15T15:26:06.866Z,-2.00
2022-12-15T15:28:44.168Z,-2.10
2022-12-15T15:31:28.593Z,-2.10
2022-12-15T15:33:58.986Z,-2.20
2022-12-15T15:36:40.248Z,-2.20
2022-12-15T15:39:17.071Z,-2.20
2022-12-15T15:41:45.080Z,-2.10
2022-12-15T15:44:15.656Z,-2.10
2022-12-15T15:46:52.181Z,-2.10
2022-12-15T15:49:22.981Z,-2.10
2022-12-15T15:51:51.082Z,-2.10
2022-12-15T15:54:23.891Z,-2.10
2022-12-15T15:56:51.890Z,-2.10
2022-12-15T15:59:26.063Z,-2.10
2022-12-15T16:01:56.992Z,-2.20
2022-12-15T16:04:25.877Z,-2.20
2022-12-15T16:06:54.521Z,-2.20
2022-12-15T16:09:23.639Z,-2.30
2022-12-15T16:11:51.854Z,-2.20
2022-12-15T16:14:19.879Z,-2.20
2022-12-15T16:16:47.960Z,-2.20
2022-12-15T16:19:15.919Z,-2.20
2022-12-15T16:21:44.309Z,-2.20
2022-12-15T16:24:18.756Z,-2.20
2022-12-15T16:26:50.941Z,-2.20
2022-12-15T16:29:21.791Z,-2.20
2022-12-15T16:31:49.929Z,-2.30
2022-12-15T16:34:18.452Z,-2.30
2022-12-15T16:36:46.528Z,-2.30
2022-12-15T16:39:35.045Z,-2.40
2022-12-15T16:42:03.569Z,-2.40
2022-12-15T16:44:31.947Z,-2.40
2022-12-15T16:47:00.035Z,-2.40
2022-12-15T16:49:28.843Z,-2.40
2022-12-15T16:51:56.745Z,-2.60
2022-12-15T16:54:27.604Z,-2.60
2022-12-15T16:56:58.054Z,-2.70
2022-12-15T16:59:34.357Z,-2.80
2022-12-15T17:02:19.422Z,-2.70
2022-12-15T17:04:47.592Z,-2.70
2022-12-15T17:07:20.667Z,-2.70
2022-12-15T17:09:51.172Z,-2.70
2022-12-15T17:12:19.876Z,-2.90
2022-12-15T17:14:47.924Z,-2.90
2022-12-15T17:17:17.667Z,-3.00
2022-12-15T17:20:11.785Z,-3.00
2022-12-15T17:22:34.428Z,-3.00
2022-12-15T17:25:02.608Z,-2.90
2022-12-15T17:27:31.259Z,-2.90
2022-12-15T17:30:01.596Z,-2.80
2022-12-15T17:32:29.588Z,-2.80
2022-12-15T17:34:57.939Z,-2.80
2022-12-15T17:37:29.183Z,-2.80
2022-12-15T17:39:59.813Z,-2.80
2022-12-15T17:42:28.045Z,-2.90
2022-12-15T17:44:56.065Z,-2.90
2022-12-15T17:47:25.249Z,-2.90
2022-12-15T17:49:53.209Z,-2.90
2022-12-15T17:52:25.471Z,-2.90
2022-12-15T17:54:53.801Z,-2.90
2022-12-15T17:57:22.007Z,-2.90
2022-12-15T17:59:49.959Z,-2.90
2022-12-15T18:02:18.091Z,-2.80
2022-12-15T18:04:49.428Z,-2.80
2022-12-15T18:07:24.342Z,-2.80
2022-12-15T18:09:53.483Z,-2.80
2022-12-15T18:12:23.885Z,-2.80
2022-12-15T18:14:52.375Z,-2.70
2022-12-15T18:17:20.984Z,-2.80
2022-12-15T18:19:49.285Z,-2.80
2022-12-15T18:22:25.364Z,-2.80
2022-12-15T18:24:54.836Z,-2.80
2022-12-15T18:27:27.829Z,-2.80
2022-12-15T18:29:57.540Z,-2.80
2022-12-15T18:32:27.938Z,-2.80
2022-12-15T18:34:56.489Z,-2.80
2022-12-15T18:37:25.773Z,-2.80
2022-12-15T18:39:56.175Z,-2.80
2022-12-15T18:42:26.708Z,-2.70
2022-12-15T18:44:54.652Z,-2.70
2022-12-15T18:47:24.235Z,-2.70
2022-12-15T18:49:52.276Z,-2.70
2022-12-15T18:52:23.164Z,-2.70
2022-12-15T18:54:52.791Z,-2.70
2022-12-15T18:57:34.854Z,-2.70
2022-12-15T19:00:14.489Z,-2.80
2022-12-15T19:02:51.845Z,-2.80
2022-12-15T19:05:30.198Z,-2.80
2022-12-15T19:08:03.081Z,-2.80
2022-12-15T19:10:34.877Z,-2.80
2022-12-15T19:13:02.916Z,-2.80
2022-12-15T19:15:30.836Z,-2.70
2022-12-15T19:18:20.733Z,-2.70
2022-12-15T19:21:07.113Z,-2.70
2022-12-15T19:23:35.448Z,-2.70
2022-12-15T19:26:03.633Z,-2.70
2022-12-15T19:28:31.639Z,-2.70
2022-12-15T19:30:59.523Z,-2.70
2022-12-15T19:33:27.496Z,-2.70
2022-12-15T19:35:56.620Z,-2.70
2022-12-15T19:38:31.205Z,-2.70
2022-12-15T19:41:00.870Z,-2.70
2022-12-15T19:43:29.016Z,-2.70
2022-12-15T19:45:57.211Z,-2.70
2022-12-15T19:48:25.156Z,-2.80
2022-12-15T19:50:55.010Z,-2.80
2022-12-15T19:53:26.907Z,-2.80
2022-12-15T19:56:05.360Z,-2.80
2022-12-15T19:58:37.468Z,-2.80
2022-12-15T20:01:17.371Z,-2.80
2022-12-15T20:03:47.405Z,-2.80
2022-12-15T20:06:27.426Z,-2.80
2022-12-15T20:08:57.260Z,-2.80
2022-12-15T20:11:31.215Z,-2.90
2022-12-15T20:13:59.402Z,-2.90
2022-12-15T20:16:27.440Z,-2.90
2022-12-15T20:18:57.133Z,-2.90
2022-12-15T20:21:32.487Z,-2.90
2022-12-15T20:24:06.299Z,-2.80
2022-12-15T20:26:35.796Z,-2.70
2022-12-15T20:29:04.223Z,-2.70
2022-12-15T20:31:32.347Z,-2.70
2022-12-15T20:34:00.481Z,-2.60
2022-12-15T20:36:31.397Z,-2.60
2022-12-15T20:38:59.385Z,-2.60
2022-12-15T20:41:30.043Z,-2.60
2022-12-15T20:43:59.051Z,-2.70
2022-12-15T20:46:33.794Z,-2.70
2022-12-15T20:49:02.550Z,-2.60
2022-12-15T20:51:33.522Z,-2.60
2022-12-15T20:54:03.487Z,-2.60
2022-12-15T20:56:31.634Z,-2.50
2022-12-15T20:59:00.202Z,-2.60
2022-12-15T21:01:32.963Z,-2.60
2022-12-15T21:04:04.654Z,-2.50
2022-12-15T21:06:32.594Z,-2.50
2022-12-15T21:09:00.570Z,-2.40
2022-12-15T21:11:32.276Z,-2.40
2022-12-15T21:14:05.098Z,-2.40
2022-12-15T21:16:33.958Z,-2.30
2022-12-15T21:19:20.278Z,-2.20
2022-12-15T21:21:52.500Z,-2.20
2022-12-15T21:24:29.088Z,-2.20
2022-12-15T21:26:57.641Z,-2.20
2022-12-15T21:29:30.079Z,-2.10
2022-12-15T21:31:58.577Z,-2.10
2022-12-15T21:34:26.605Z,-2.00
2022-12-15T21:36:55.657Z,-2.00
2022-12-15T21:39:34.575Z,-2.00
2022-12-15T21:42:07.175Z,-2.00
2022-12-15T21:44:36.111Z,-2.00
2022-12-15T21:47:21.739Z,-2.00
2022-12-15T21:49:49.687Z,-2.00
2022-12-15T21:52:19.148Z,-2.00
2022-12-15T21:54:47.098Z,-1.90
2022-12-15T21:57:14.974Z,-1.90
2022-12-15T21:59:44.038Z,-1.90
2022-12-15T22:02:28.727Z,-1.90
2022-12-15T22:05:02.764Z,-1.90
2022-12-15T22:07:30.846Z,-1.90
2022-12-15T22:09:59.129Z,-1.90
2022-12-15T22:12:27.882Z,-1.90
2022-12-15T22:14:58.456Z,-1.90
2022-12-15T22:17:26.891Z,-1.80
2022-12-15T22:19:54.811Z,-1.80
2022-12-15T22:22:24.728Z,-1.80
2022-12-15T22:24:56.341Z,-1.80
2022-12-15T22:27:24.253Z,-1.70
2022-12-15T22:29:52.420Z,-1.70
2022-12-15T22:32:20.331Z,-1.70
2022-12-15T22:34:48.305Z,-1.70
2022-12-15T22:37:16.879Z,-1.70
2022-12-15T22:39:45.324Z,-1.70
2022-12-15T22:42:17.989Z,-1.70
2022-12-15T22:44:46.518Z,-1.70
2022-12-15T22:47:16.537Z,-1.70
2022-12-15T22:49:44.525Z,-1.70
2022-12-15T22:52:17.989Z,-1.70
2022-12-15T22:54:46.231Z,-1.70
2022-12-15T22:57:25.981Z,-1.70
2022-12-15T23:00:05.070Z,-1.70
2022-12-15T23:02:42.683Z,-1.70
2022-12-15T23:05:13.126Z,-1.70
2022-12-15T23:07:41.067Z,-1.70
2022-12-15T23:10:28.462Z,-1.70
2022-12-15T23:12:56.853Z,-1.70
2022-12-15T23:15:45.273Z,-1.70
2022-12-15T23:18:13.414Z,-1.70
2022-12-15T23:20:41.366Z,-1.70
2022-12-15T23:23:10.950Z,-1.70
2022-12-15T23:25:38.988Z,-1.60
2022-12-15T23:28:07.174Z,-1.60
2022-12-15T23:30:39.371Z,-1.60
2022-12-15T23:33:07.339Z,-1.60
2022-12-15T23:35:36.829Z,-1.60
2022-12-15T23:38:07.854Z,-1.60
2022-12-15T23:40:36.689Z,-1.60
2022-12-15T23:43:05.018Z,-1.60
2022-12-15T23:45:33.132Z,-1.60
2022-12-15T23:48:01.088Z,-1.50
2022-12-15T23:50:29.046Z,-1.60
2022-12-15T23:52:56.918Z,-1.60
2022-12-15T23:55:24.816Z,-1.60
2022-12-15T23:57:52.818Z,-1.60
